Time;durP1;ratioP1;P1;durP2;ratioP2;P2;SDS_P1;SDS_P2;PMS_P1;PMS_P2;Temp;Humidity;BMP_temperature;BMP_pressure;BME280_temperature;BME280_humidity;BME280_pressure;Samples;Min_cycle;Max_cycle;Signal;HPM_P1;HPM_P2
2024/01/18 00:00:19;;;;;;;3.08;1.13;;;;;;;;;;4990851;28;20022;-78
2024/01/18 00:02:45;;;;;;;0.85;0.57;;;;;;;;;;4991544;28;20034;-77
2024/01/18 00:05:12;;;;;;;0.73;0.65;;;;;;;;;;4991524;28;20049;-77
2024/01/18 00:07:37;;;;;;;1.20;1.10;;;9.80;99.90;;;;;;4991066;28;20041;-78
2024/01/18 00:10:03;;;;;;;0.93;0.77;;;;;;;;;;4991285;28;20014;-78
2024/01/18 00:12:29;;;;;;;1.20;1.00;;;;;;;;;;4997031;28;20038;-77
2024/01/18 00:14:55;;;;;;;1.08;0.60;;;9.80;99.90;;;;;;4995810;28;20057;-78
2024/01/18 00:17:21;;;;;;;0.70;0.70;;;;;;;;;;4991071;28;20019;-78
2024/01/18 00:19:47;;;;;;;0.82;0.82;;;;;;;;;;4991535;28;20058;-77
2024/01/18 00:22:13;;;;;;;1.65;1.08;;;;;;;;;;4990693;28;20105;-78
2024/01/18 00:24:39;;;;;;;2.10;0.73;;;;;;;;;;4990782;28;20106;-78
2024/01/18 00:27:06;;;;;;;0.50;0.50;;;;;;;;;;4991344;28;20388;-78
2024/01/18 00:29:32;;;;;;;1.80;1.27;;;;;;;;;;4990253;28;20026;-78
2024/01/18 00:31:58;;;;;;;3.53;1.55;;;;;;;;;;4990676;28;20039;-79
2024/01/18 00:34:24;;;;;;;2.40;0.70;;;;;;;;;;4989574;28;20018;-78
2024/01/18 00:36:50;;;;;;;0.88;0.60;;;;;;;;;;4990871;28;20050;-79
2024/01/18 00:39:19;;;;;;;0.90;0.68;;;;;;;;;;4990119;28;20029;-78
2024/01/18 00:41:45;;;;;;;3.03;0.82;;;;;;;;;;4990611;28;20558;-78
2024/01/18 00:44:11;;;;;;;2.15;0.80;;;9.90;99.90;;;;;;4990845;28;20391;-78
2024/01/18 00:46:37;;;;;;;0.73;0.70;;;10.00;99.90;;;;;;4973279;28;20080;-78
2024/01/18 00:49:04;;;;;;;0.90;0.65;;;;;;;;;;4990220;28;20388;-78
2024/01/18 00:51:30;;;;;;;1.42;0.70;;;;;;;;;;4990099;28;20081;-78
2024/01/18 00:53:56;;;;;;;1.90;0.68;;;;;;;;;;4990274;28;20439;-78
2024/01/18 00:56:22;;;;;;;4.00;2.22;;;10.10;99.90;;;;;;4990458;28;20093;-78
2024/01/18 00:58:49;;;;;;;0.73;0.60;;;;;;;;;;4989717;28;20030;-79
2024/01/18 01:01:15;;;;;;;1.15;0.57;;;;;;;;;;4990504;28;20029;-78
2024/01/18 01:03:41;;;;;;;0.50;0.50;;;;;;;;;;4987970;28;20030;-79
2024/01/18 01:06:11;;;;;;;0.50;0.50;;;10.90;99.90;;;;;;4989602;28;20033;-79
2024/01/18 01:08:37;;;;;;;0.63;0.35;;;;;;;;;;4990054;28;20026;-78
2024/01/18 01:11:03;;;;;;;0.70;0.50;;;10.80;99.90;;;;;;4990203;28;20030;-79
2024/01/18 01:13:29;;;;;;;0.50;0.50;;;;;;;;;;5000918;28;20061;-78
2024/01/18 01:15:56;;;;;;;1.85;0.80;;;;;;;;;;4990441;28;20022;-78
2024/01/18 01:18:22;;;;;;;0.60;0.60;;;;;;;;;;4989673;28;20081;-78
2024/01/18 01:20:48;;;;;;;0.30;0.30;;;;;;;;;;4989383;28;20026;-78
2024/01/18 01:23:15;;;;;;;0.90;0.70;;;;;;;;;;4989727;28;20026;-78
2024/01/18 01:25:40;;;;;;;1.40;0.60;;;11.20;99.90;;;;;;4990436;28;20054;-78
2024/01/18 01:28:06;;;;;;;0.52;0.30;;;;;;;;;;4989160;28;20023;-78
2024/01/18 01:30:33;;;;;;;0.75;0.70;;;;;;;;;;4989937;28;20030;-78
2024/01/18 01:32:58;;;;;;;1.10;0.55;;;11.10;99.90;;;;;;4989336;28;20026;-78
2024/01/18 01:35:24;;;;;;;2.35;1.23;;;;;;;;;;4989691;28;20410;-78
2024/01/18 01:37:50;;;;;;;2.35;0.85;;;;;;;;;;4985749;28;20030;-79
2024/01/18 01:40:16;;;;;;;0.70;0.47;;;;;;;;;;5003889;28;20133;-79
2024/01/18 01:42:42;;;;;;;0.40;0.40;;;;;;;;;;4996492;28;20506;-78
2024/01/18 01:45:08;;;;;;;0.75;0.75;;;;;;;;;;4994507;28;20050;-79
2024/01/18 01:47:34;;;;;;;0.65;0.40;;;11.20;99.90;;;;;;5001065;28;20037;-79
2024/01/18 01:50:01;;;;;;;0.40;0.40;;;11.30;99.90;;;;;;4989323;28;20030;-78
2024/01/18 01:52:30;;;;;;;0.77;0.52;;;11.30;99.90;;;;;;4989099;28;20026;-79
2024/01/18 01:54:57;;;;;;;0.45;0.45;;;;;;;;;;4980076;28;20030;-79
2024/01/18 01:57:24;;;;;;;0.40;0.40;;;11.50;99.90;;;;;;4998008;28;20510;-79
2024/01/18 01:59:51;;;;;;;0.35;0.35;;;;;;;;;;4989724;28;20111;-79
2024/01/18 02:02:17;;;;;;;1.05;0.50;;;11.40;99.90;;;;;;4989102;28;20026;-78
2024/01/18 02:04:44;;;;;;;1.23;0.50;;;11.50;99.90;;;;;;4971266;28;20018;-79
2024/01/18 02:07:12;;;;;;;0.50;0.50;;;11.50;99.90;;;;;;4991126;28;20037;-79
2024/01/18 02:09:39;;;;;;;0.68;0.40;;;11.50;99.90;;;;;;4991003;28;20041;-79
2024/01/18 02:12:05;;;;;;;0.38;0.38;;;;;;;;;;4991561;28;20092;-79
2024/01/18 02:14:31;;;;;;;1.02;0.60;;;;;;;;;;4998113;28;20029;-78
2024/01/18 02:16:57;;;;;;;0.90;0.43;;;;;;;;;;5000368;28;20022;-79
2024/01/18 02:19:23;;;;;;;2.25;0.73;;;;;;;;;;4988748;28;20034;-78
2024/01/18 02:21:49;;;;;;;0.90;0.32;;;11.60;99.90;;;;;;4989110;28;20054;-78
2024/01/18 02:24:18;;;;;;;0.40;0.40;;;11.60;99.90;;;;;;4989703;28;20030;-78
2024/01/18 02:26:44;;;;;;;0.30;0.30;;;;;;;;;;4971202;28;20456;-78
2024/01/18 02:29:10;;;;;;;0.30;0.30;;;;;;;;;;4988705;28;20042;-79
2024/01/18 02:31:36;;;;;;;0.30;0.30;;;;;;;;;;4986032;28;20022;-79
2024/01/18 02:34:09;;;;;;;0.40;0.40;;;11.60;99.60;;;;;;4989015;28;20333;-79
2024/01/18 02:36:35;;;;;;;0.40;0.40;;;;;;;;;;4989541;28;20045;-78
2024/01/18 02:39:01;;;;;;;0.40;0.40;;;11.60;99.90;;;;;;4988908;28;20026;-79
2024/01/18 02:41:27;;;;;;;0.35;0.30;;;;;;;;;;4988263;28;20058;-78
2024/01/18 02:43:53;;;;;;;0.20;0.20;;;;;;;;;;4989687;28;20041;-78
2024/01/18 02:46:19;;;;;;;1.85;0.50;;;;;;;;;;4992931;28;20426;-79
2024/01/18 02:48:45;;;;;;;0.35;0.35;;;;;;;;;;4996510;28;20392;-78
2024/01/18 02:51:12;;;;;;;0.40;0.40;;;;;;;;;;4989053;28;20106;-79
2024/01/18 02:53:38;;;;;;;0.98;0.43;;;;;;;;;;4989120;28;20141;-78
2024/01/18 02:56:04;;;;;;;1.77;0.82;;;;;;;;;;4989079;28;20094;-79
2024/01/18 02:58:30;;;;;;;0.57;0.57;;;;;;;;;;4988743;28;20034;-78
2024/01/18 03:00:56;;;;;;;0.57;0.40;;;;;;;;;;4988882;28;20403;-79
2024/01/18 03:03:22;;;;;;;0.60;0.50;;;11.30;99.90;;;;;;4988497;28;20030;-79
2024/01/18 03:05:48;;;;;;;0.60;0.60;;;;;;;;;;4988729;28;20030;-78
2024/01/18 03:08:14;;;;;;;0.60;0.50;;;11.50;99.40;;;;;;4988809;28;20030;-78
2024/01/18 03:10:40;;;;;;;0.30;0.30;;;;;;;;;;4988283;28;20037;-78
2024/01/18 03:13:07;;;;;;;8.20;1.77;;;;;;;;;;4989321;28;20046;-79
2024/01/18 03:15:33;;;;;;;0.57;0.40;;;;;;;;;;4988734;28;20527;-78
2024/01/18 03:17:59;;;;;;;0.55;0.52;;;;;;;;;;4988258;28;20038;-78
2024/01/18 03:20:25;;;;;;;0.85;0.50;;;;;;;;;;4987123;28;20118;-78
2024/01/18 03:22:51;;;;;;;1.45;0.68;;;11.20;99.90;;;;;;4988689;28;20033;-79
2024/01/18 03:25:17;;;;;;;3.05;0.85;;;;;;;;;;4988662;28;20022;-78
2024/01/18 03:27:43;;;;;;;3.15;1.27;;;;;;;;;;4989485;28;20085;-78
2024/01/18 03:30:10;;;;;;;2.42;1.25;;;11.20;99.90;;;;;;4991672;28;20034;-78
2024/01/18 03:32:36;;;;;;;1.77;1.00;;;;;;;;;;4992068;28;20026;-78
2024/01/18 03:35:02;;;;;;;0.75;0.60;;;;;;;;;;4991804;28;20422;-79
2024/01/18 03:37:28;;;;;;;2.03;0.60;;;;;;;;;;4990415;28;20062;-78
2024/01/18 03:39:54;;;;;;;1.02;0.88;;;;;;;;;;5001784;28;20081;-78
2024/01/18 03:42:20;;;;;;;0.80;0.60;;;;;;;;;;4994477;28;20029;-78
2024/01/18 03:44:46;;;;;;;0.52;0.52;;;;;;;;;;4991667;28;20030;-78
2024/01/18 03:47:12;;;;;;;0.60;0.50;;;;;;;;;;5002822;28;20029;-78
2024/01/18 03:49:38;;;;;;;1.23;0.50;;;;;;;;;;4992938;28;20037;-78
2024/01/18 03:52:04;;;;;;;0.30;0.30;;;;;;;;;;4991273;28;20527;-78
2024/01/18 03:54:30;;;;;;;0.40;0.40;;;;;;;;;;4991672;28;20022;-78
2024/01/18 03:56:56;;;;;;;0.40;0.40;;;;;;;;;;4991207;28;20036;-78
2024/01/18 03:59:23;;;;;;;1.38;0.88;;;;;;;;;;4991165;28;20499;-78
2024/01/18 04:01:49;;;;;;;0.50;0.50;;;10.50;99.90;;;;;;4991814;28;20030;-78
2024/01/18 04:04:15;;;;;;;0.40;0.40;;;;;;;;;;4991692;28;20510;-78
2024/01/18 04:06:42;;;;;;;0.30;0.30;;;;;;;;;;4991545;28;20034;-79
2024/01/18 04:09:08;;;;;;;0.65;0.65;;;;;;;;;;4991018;28;20022;-78
2024/01/18 04:11:34;;;;;;;0.30;0.30;;;;;;;;;;4991132;28;20030;-78
2024/01/18 04:14:01;;;;;;;0.22;0.22;;;;;;;;;;4991157;28;20041;-79
2024/01/18 04:16:27;;;;;;;0.93;0.93;;;;;;;;;;4990812;28;20026;-78
2024/01/18 04:18:53;;;;;;;0.38;0.30;;;;;;;;;;4977344;28;20077;-78
2024/01/18 04:21:19;;;;;;;0.20;0.20;;;;;;;;;;4990852;28;20023;-78
2024/01/18 04:23:45;;;;;;;0.30;0.30;;;;;;;;;;4991124;28;20038;-78
2024/01/18 04:26:11;;;;;;;0.38;0.38;;;;;;;;;;4991472;28;20030;-78
2024/01/18 04:28:37;;;;;;;0.40;0.40;;;;;;;;;;4989006;28;20026;-78
2024/01/18 04:31:03;;;;;;;0.32;0.32;;;;;;;;;;4990705;28;20018;-78
2024/01/18 04:33:29;;;;;;;0.30;0.30;;;;;;;;;;4991036;28;20042;-78
2024/01/18 04:35:55;;;;;;;0.30;0.30;;;;;;;;;;4991111;28;20037;-78
2024/01/18 04:38:21;;;;;;;0.43;0.43;;;;;;;;;;4989618;28;20407;-78
2024/01/18 04:40:47;;;;;;;0.40;0.40;;;;;;;;;;4990123;28;20056;-78
2024/01/18 04:43:13;;;;;;;2.40;0.30;;;11.10;99.90;;;;;;4990447;28;20027;-78
2024/01/18 04:45:39;;;;;;;0.93;0.40;;;;;;;;;;4990487;28;20553;-78
2024/01/18 04:48:05;;;;;;;0.47;0.47;;;11.40;99.90;;;;;;5002276;28;20025;-78
2024/01/18 04:50:31;;;;;;;4.78;0.40;;;12.20;97.20;;;;;;4990977;28;20503;-78
2024/01/18 04:52:57;;;;;;;0.30;0.30;;;;;;;;;;4990380;28;20522;-78
2024/01/18 04:55:23;;;;;;;0.40;0.40;;;;;;;;;;4990659;28;20118;-78
2024/01/18 04:57:49;;;;;;;2.58;0.38;;;11.50;96.10;;;;;;4989778;28;20109;-78
2024/01/18 05:00:15;;;;;;;0.30;0.30;;;;;;;;;;4990474;28;20040;-78
2024/01/18 05:02:42;;;;;;;0.30;0.30;;;;;;;;;;4990019;28;20483;-78
2024/01/18 05:05:08;;;;;;;0.40;0.40;;;11.10;99.90;;;;;;4990418;28;20034;-78
2024/01/18 05:07:38;;;;;;;2.97;0.40;;;11.60;97.10;;;;;;4989921;28;20030;-78
2024/01/18 05:10:04;;;;;;;0.30;0.30;;;11.40;99.90;;;;;;4989978;28;20809;-78
2024/01/18 05:12:31;;;;;;;1.10;0.50;;;11.40;96.20;;;;;;4989955;28;20030;-79
2024/01/18 05:14:57;;;;;;;0.40;0.40;;;;;;;;;;4990053;28;20034;-79
2024/01/18 05:17:29;;;;;;;0.90;0.50;;;;;;;;;;4989734;28;20031;-78
2024/01/18 05:19:55;;;;;;;0.30;0.30;;;;;;;;;;4990575;28;20088;-78
2024/01/18 05:22:22;;;;;;;0.88;0.30;;;;;;;;;;4989530;28;20029;-78
2024/01/18 05:24:48;;;;;;;0.43;0.43;;;;;;;;;;4989769;28;20042;-78
2024/01/18 05:27:14;;;;;;;1.15;1.05;;;;;;;;;;4990194;28;20031;-78
2024/01/18 05:29:40;;;;;;;1.25;0.47;;;;;;;;;;4988212;28;20455;-79
2024/01/18 05:32:06;;;;;;;0.77;0.55;;;;;;;;;;4990003;28;20038;-79
2024/01/18 05:34:31;;;;;;;0.40;0.40;;;11.80;99.90;;;;;;4989960;28;20022;-79
2024/01/18 05:36:57;;;;;;;1.55;0.47;;;11.90;99.90;;;;;;4989547;28;20041;-78
2024/01/18 05:39:25;;;;;;;1.60;0.68;;;;;;;;;;4988951;28;20444;-78
2024/01/18 05:41:51;;;;;;;0.63;0.55;;;;;;;;;;4989137;28;20042;-78
2024/01/18 05:44:17;;;;;;;0.35;0.35;;;;;;;;;;4989319;28;20037;-78
2024/01/18 05:46:43;;;;;;;0.85;0.45;;;;;;;;;;5003995;28;20096;-78
2024/01/18 05:49:09;;;;;;;0.40;0.40;;;;;;;;;;4993406;28;20022;-78
2024/01/18 05:51:35;;;;;;;0.30;0.30;;;;;;;;;;4991341;28;20033;-78
2024/01/18 05:54:01;;;;;;;0.32;0.32;;;;;;;;;;4989245;28;20034;-79
2024/01/18 05:56:27;;;;;;;0.40;0.40;;;;;;;;;;4989471;28;20404;-78
2024/01/18 05:58:53;;;;;;;0.30;0.30;;;;;;;;;;4989069;28;20033;-78
2024/01/18 06:01:21;;;;;;;0.30;0.30;;;;;;;;;;4989044;28;20062;-78
2024/01/18 06:03:47;;;;;;;0.57;0.50;;;;;;;;;;4989245;28;20035;-78
2024/01/18 06:06:13;;;;;;;0.40;0.40;;;;;;;;;;4989297;28;20041;-79
2024/01/18 06:08:39;;;;;;;0.50;0.47;;;;;;;;;;4989054;28;20022;-78
2024/01/18 06:11:05;;;;;;;0.30;0.30;;;;;;;;;;4981326;28;20050;-78
2024/01/18 06:13:31;;;;;;;0.40;0.40;;;;;;;;;;4979428;28;20038;-78
2024/01/18 06:15:57;;;;;;;0.40;0.40;;;;;;;;;;4980127;28;20018;-79
2024/01/18 06:18:23;;;;;;;0.38;0.38;;;;;;;;;;4982925;28;20038;-79
2024/01/18 06:20:49;;;;;;;0.28;0.28;;;;;;;;;;4989459;28;20380;-79
2024/01/18 06:23:15;;;;;;;0.30;0.30;;;;;;;;;;4982765;28;20074;-78
2024/01/18 06:25:41;;;;;;;0.40;0.40;;;;;;;;;;4973983;28;20058;-78
2024/01/18 06:28:07;;;;;;;0.63;0.63;;;;;;;;;;4984500;28;20032;-79
2024/01/18 06:30:33;;;;;;;0.30;0.30;;;;;;;;;;4985207;28;20561;-78
2024/01/18 06:32:59;;;;;;;0.40;0.40;;;;;;;;;;4982065;28;20069;-78
2024/01/18 06:35:25;;;;;;;0.30;0.30;;;;;;;;;;4976354;28;20061;-78
2024/01/18 06:38:05;;;;;;;0.20;0.20;;;;;;;;;;4973591;28;20476;-82
2024/01/18 06:40:31;;;;;;;0.47;0.47;;;;;;;;;;4986271;28;20046;-83
2024/01/18 06:42:57;;;;;;;5.57;0.75;;;;;;;;;;4976253;28;20031;-83
2024/01/18 06:45:23;;;;;;;0.30;0.30;;;;;;;;;;4975847;28;20022;-82
2024/01/18 06:47:49;;;;;;;0.75;0.57;;;;;;;;;;4992956;28;20031;-81
2024/01/18 06:50:16;;;;;;;1.73;0.40;;;;;;;;;;4987932;28;20022;-80
2024/01/18 06:52:42;;;;;;;0.80;0.40;;;;;;;;;;4983464;28;20424;-80
2024/01/18 06:55:08;;;;;;;0.43;0.43;;;;;;;;;;4984275;28;20022;-81
2024/01/18 06:57:34;;;;;;;0.30;0.30;;;;;;;;;;4987170;28;20061;-80
2024/01/18 07:00:00;;;;;;;0.20;0.20;;;;;;;;;;4987829;28;20045;-80
2024/01/18 07:02:26;;;;;;;0.30;0.30;;;;;;;;;;4989790;28;20030;-80
2024/01/18 07:04:52;;;;;;;0.28;0.28;;;;;;;;;;4991141;28;20034;-80
2024/01/18 07:07:20;;;;;;;0.60;0.60;;;;;;;;;;4991430;28;20430;-80
2024/01/18 07:09:45;;;;;;;;;;;11.90;88.90;;;;;;4991855;28;20036;-80
2024/01/18 07:12:11;;;;;;;0.30;0.30;;;;;;;;;;4991244;28;19914;-80
2024/01/18 07:14:39;;;;;;;0.60;0.60;;;;;;;;;;4990950;28;20038;-80
2024/01/18 07:17:05;;;;;;;0.50;0.50;;;;;;;;;;4991166;28;20246;-80
2024/01/18 07:19:31;;;;;;;0.35;0.35;;;;;;;;;;4990645;28;20096;-80
2024/01/18 07:21:57;;;;;;;0.35;0.28;;;;;;;;;;4990681;28;20438;-76
2024/01/18 07:24:23;;;;;;;0.85;0.65;;;;;;;;;;4991165;28;20034;-75
2024/01/18 07:26:49;;;;;;;0.63;0.63;;;;;;;;;;4991011;28;20026;-75
2024/01/18 07:29:15;;;;;;;0.43;0.43;;;;;;;;;;4990619;28;20056;-76
2024/01/18 07:31:41;;;;;;;0.47;0.47;;;;;;;;;;4990914;28;20113;-76
2024/01/18 07:34:07;;;;;;;0.30;0.30;;;;;;;;;;4991199;28;20038;-76
2024/01/18 07:36:33;;;;;;;0.73;0.73;;;;;;;;;;4990332;28;20029;-75
2024/01/18 07:38:59;;;;;;;0.40;0.40;;;;;;;;;;4990470;28;20038;-75
2024/01/18 07:41:25;;;;;;;0.40;0.40;;;;;;;;;;4990527;28;20074;-76
2024/01/18 07:43:51;;;;;;;0.80;0.80;;;;;;;;;;4990269;28;20058;-76
2024/01/18 07:46:17;;;;;;;1.77;1.35;;;;;;;;;;4993941;28;20427;-76
2024/01/18 07:48:43;;;;;;;4.80;0.55;;;;;;;;;;5000243;28;20034;-76
2024/01/18 07:51:09;;;;;;;0.45;0.40;;;;;;;;;;4990177;28;20102;-76
2024/01/18 07:53:35;;;;;;;0.30;0.30;;;;;;;;;;4993817;28;20392;-76
2024/01/18 07:56:01;;;;;;;10.88;0.88;;;;;;;;;;4991258;28;20025;-76
2024/01/18 07:58:27;;;;;;;0.38;0.38;;;;;;;;;;4989519;28;20027;-75
2024/01/18 08:00:53;;;;;;;0.52;0.52;;;;;;;;;;4990319;28;20026;-75
2024/01/18 08:03:19;;;;;;;0.35;0.35;;;;;;;;;;4989233;28;20108;-75
2024/01/18 08:05:45;;;;;;;0.43;0.43;;;;;;;;;;4989808;28;20026;-75
2024/01/18 08:08:11;;;;;;;0.40;0.40;;;;;;;;;;4990472;28;20534;-75
2024/01/18 08:10:37;;;;;;;0.50;0.35;;;;;;;;;;4989450;28;20026;-76
2024/01/18 08:13:03;;;;;;;1.50;0.85;;;;;;;;;;4989080;28;20034;-75
2024/01/18 08:15:29;;;;;;;0.30;0.30;;;;;;;;;;4989543;28;20022;-76
2024/01/18 08:17:55;;;;;;;0.30;0.30;;;;;;;;;;4989922;28;20458;-75
2024/01/18 08:20:21;;;;;;;0.35;0.32;;;;;;;;;;4989652;28;20030;-76
2024/01/18 08:22:49;;;;;;;0.47;0.47;;;;;;;;;;4990220;28;20033;-76
2024/01/18 08:25:15;;;;;;;0.40;0.40;;;;;;;;;;4989822;28;20535;-76
2024/01/18 08:27:43;;;;;;;0.60;0.60;;;12.00;82.70;;;;;;4989525;28;20113;-75
2024/01/18 08:30:09;;;;;;;0.40;0.40;;;12.00;82.40;;;;;;4989644;28;20394;-77
2024/01/18 08:32:35;;;;;;;0.30;0.30;;;;;;;;;;4989156;28;20535;-78
2024/01/18 08:35:02;;;;;;;0.30;0.30;;;12.00;82.90;;;;;;4989831;28;20080;-81
2024/01/18 08:37:28;;;;;;;0.22;0.22;;;;;;;;;;4989370;28;20407;-75
2024/01/18 08:39:54;;;;;;;0.40;0.40;;;;;;;;;;4987636;28;20054;-76
2024/01/18 08:42:20;;;;;;;0.30;0.30;;;;;;;;;;4989277;28;20031;-75
2024/01/18 08:44:47;;;;;;;0.40;0.40;;;;;;;;;;4989118;28;20026;-76
2024/01/18 08:47:13;;;;;;;0.25;0.25;;;;;;;;;;4993446;28;20422;-74
2024/01/18 08:49:39;;;;;;;0.40;0.40;;;12.50;96.50;;;;;;4988194;28;20038;-77
2024/01/18 08:52:05;;;;;;;0.50;0.50;;;;;;;;;;4989274;28;20412;-75
2024/01/18 08:54:31;;;;;;;0.43;0.43;;;12.20;89.90;;;;;;4989539;28;20591;-74
2024/01/18 08:56:57;;;;;;;0.40;0.40;;;12.20;95.90;;;;;;4988980;28;20060;-75
2024/01/18 08:59:23;;;;;;;2.40;0.57;;;;;;;;;;4976160;28;20121;-72
2024/01/18 09:01:50;;;;;;;0.20;0.20;;;12.70;95.40;;;;;;4980051;28;20022;-73
2024/01/18 09:04:19;;;;;;;0.40;0.40;;;12.90;77.50;;;;;;4988028;28;20030;-73
2024/01/18 09:06:45;;;;;;;0.40;0.40;;;;;;;;;;4989228;28;20037;-73
2024/01/18 09:09:11;;;;;;;0.32;0.32;;;;;;;;;;4989018;28;20026;-76
2024/01/18 09:11:38;;;;;;;0.45;0.45;;;13.30;73.90;;;;;;4988793;28;20102;-74
2024/01/18 09:14:04;;;;;;;0.73;0.43;;;;;;;;;;4987903;28;20078;-74
2024/01/18 09:16:33;;;;;;;0.30;0.30;;;13.40;73.70;;;;;;4989214;28;20293;-75
2024/01/18 09:18:59;;;;;;;0.40;0.40;;;13.30;72.50;;;;;;4988197;28;20030;-74
2024/01/18 09:21:26;;;;;;;0.40;0.40;;;;;;;;;;4989022;28;20035;-75
2024/01/18 09:23:52;;;;;;;0.30;0.30;;;;;;;;;;4989286;28;20030;-72
2024/01/18 09:26:18;;;;;;;0.20;0.20;;;12.80;90.80;;;;;;4987558;28;20022;-77
2024/01/18 09:28:44;;;;;;;0.45;0.45;;;13.60;75.50;;;;;;4988722;28;20084;-76
2024/01/18 09:31:10;;;;;;;0.20;0.20;;;;;;;;;;4989535;28;20105;-76
2024/01/18 09:33:40;;;;;;;0.30;0.30;;;;;;;;;;4988260;28;20042;-77
2024/01/18 09:36:06;;;;;;;0.50;0.50;;;12.80;75.30;;;;;;4989197;28;20447;-77
2024/01/18 09:38:36;;;;;;;0.60;0.60;;;12.80;76.60;;;;;;4989150;28;20525;-77
2024/01/18 09:41:06;;;;;;;0.60;0.60;;;12.80;75.60;;;;;;4988127;28;20628;-77
2024/01/18 09:43:37;;;;;;;0.43;0.43;;;12.70;76.00;;;;;;4988803;28;20022;-75
2024/01/18 09:46:07;;;;;;;1.02;0.60;;;12.50;82.30;;;;;;4990570;28;20038;-72
2024/01/18 09:48:36;;;;;;;0.30;0.30;;;12.70;95.50;;;;;;4997771;28;20027;-74
2024/01/18 09:51:03;;;;;;;0.40;0.40;;;12.30;80.00;;;;;;4988578;28;20026;-73
2024/01/18 09:53:29;;;;;;;0.77;0.30;;;;;;;;;;4987527;28;20613;-73
2024/01/18 09:56:00;;;;;;;0.30;0.30;;;;;;;;;;4988875;28;20625;-73
2024/01/18 09:58:26;;;;;;;0.40;0.40;;;;;;;;;;4997864;28;20398;-74
2024/01/18 10:00:57;;;;;;;0.57;0.50;;;12.00;85.50;;;;;;4981908;28;20143;-78
2024/01/18 10:03:23;;;;;;;0.40;0.40;;;;;;;;;;4988885;28;20566;-76
2024/01/18 10:05:49;;;;;;;0.77;0.60;;;;;;;;;;4988467;28;20022;-76
2024/01/18 10:08:16;;;;;;;3.60;0.68;;;;;;;;;;4988243;28;20689;-76
2024/01/18 10:10:42;;;;;;;0.55;0.50;;;;;;;;;;4987415;28;20037;-75
2024/01/18 10:13:12;;;;;;;0.40;0.40;;;11.80;92.80;;;;;;4987943;28;20400;-75
2024/01/18 10:15:39;;;;;;;4.85;1.88;;;;;;;;;;4970292;28;20097;-76
2024/01/18 10:18:06;;;;;;;0.52;0.52;;;11.80;93.00;;;;;;4987616;28;20054;-76
2024/01/18 10:20:32;;;;;;;0.47;0.38;;;11.90;99.90;;;;;;4988238;28;20203;-76
2024/01/18 10:22:59;;;;;;;1.80;0.88;;;11.60;99.90;;;;;;4988719;28;20098;-77
2024/01/18 10:25:28;;;;;;;1.88;1.05;;;12.00;94.30;;;;;;4988024;28;20031;-75
2024/01/18 10:27:55;;;;;;;1.45;1.35;;;11.90;99.90;;;;;;4987409;28;20549;-75
2024/01/18 10:30:21;;;;;;;;;;;12.00;93.40;;;;;;4988530;28;20026;-75
2024/01/18 10:32:47;;;;;;;1.02;0.75;;;;;;;;;;4987131;28;19918;-74
2024/01/18 10:35:28;;;;;;;2.05;1.27;;;12.00;94.70;;;;;;4988439;28;20144;-75
2024/01/18 10:38:00;;;;;;;3.65;1.00;;;;;;;;;;4991168;28;20034;-75
2024/01/18 10:40:26;;;;;;;2.78;1.60;;;;;;;;;;4991226;28;20143;-75
2024/01/18 10:42:52;;;;;;;1.75;1.10;;;;;;;;;;4992307;28;20022;-74
2024/01/18 10:45:18;;;;;;;3.00;1.48;;;11.80;99.60;;;;;;4991017;28;20472;-75
2024/01/18 10:47:44;;;;;;;3.03;2.20;;;11.60;96.50;;;;;;5003375;28;20018;-75
2024/01/18 10:50:10;;;;;;;5.32;3.08;;;11.60;97.10;;;;;;4992113;28;20158;-74
2024/01/18 10:52:39;;;;;;;1.65;1.17;;;;;;;;;;4991017;28;20058;-76
2024/01/18 10:55:08;;;;;;;1.30;0.95;;;11.40;99.90;;;;;;4991135;28;20027;-74
2024/01/18 10:57:34;;;;;;;1.20;0.85;;;;;;;;;;4988117;28;20014;-77
2024/01/18 11:00:00;;;;;;;2.58;0.88;;;;;;;;;;4990870;28;20034;-74
2024/01/18 11:02:27;;;;;;;1.98;0.80;;;;;;;;;;4991843;28;20022;-74
2024/01/18 11:04:55;;;;;;;0.60;0.60;;;11.30;98.70;;;;;;4992079;28;20035;-74
2024/01/18 11:07:21;;;;;;;0.57;0.57;;;;;;;;;;4991731;28;20101;-74
2024/01/18 11:09:47;;;;;;;1.02;0.93;;;;;;;;;;4991292;28;20026;-74
2024/01/18 11:12:13;;;;;;;0.60;0.60;;;;;;;;;;4991447;28;20026;-74
2024/01/18 11:14:40;;;;;;;0.90;0.73;;;11.60;99.40;;;;;;4991119;28;20053;-74
2024/01/18 11:17:26;;;;;;;1.33;0.90;;;11.70;99.90;;;;;;4991404;28;20015;-74
2024/01/18 11:19:59;;;;;;;1.17;0.60;;;11.80;98.70;;;;;;4991270;28;20058;-74
2024/01/18 11:22:26;;;;;;;0.52;0.52;;;11.80;98.40;;;;;;4991984;28;20053;-74
2024/01/18 11:24:52;;;;;;;1.80;0.70;;;;;;;;;;4990927;28;20112;-74
2024/01/18 11:27:19;;;;;;;1.23;0.80;;;11.70;98.90;;;;;;4991124;28;20451;-74
2024/01/18 11:29:45;;;;;;;0.60;0.60;;;;;;;;;;4990668;28;20037;-74
2024/01/18 11:32:15;;;;;;;2.88;0.70;;;11.50;99.90;;;;;;4990762;28;20022;-73
2024/01/18 11:34:41;;;;;;;0.85;0.63;;;11.60;99.60;;;;;;4990564;28;20492;-78
2024/01/18 11:37:14;;;;;;;1.77;0.82;;;11.60;99.60;;;;;;4991471;28;20121;-78
2024/01/18 11:39:48;;;;;;;1.10;0.73;;;11.10;99.50;;;;;;4989975;28;20129;-73
2024/01/18 11:42:27;;;;;;;1.40;0.70;;;11.60;99.90;;;;;;4990552;28;20025;-72
2024/01/18 11:44:58;;;;;;;1.38;0.52;;;11.60;99.90;;;;;;4990920;28;20022;-73
2024/01/18 11:47:28;;;;;;;0.63;0.63;;;11.50;99.90;;;;;;5002101;28;20372;-72
2024/01/18 11:49:54;;;;;;;2.75;0.68;;;;;;;;;;4989824;28;20562;-72
2024/01/18 11:52:24;;;;;;;1.15;0.40;;;;;;;;;;4992545;28;20563;-73
2024/01/18 11:54:53;;;;;;;0.80;0.52;;;11.40;99.90;;;;;;4991034;28;20109;-73
2024/01/18 11:57:19;;;;;;;1.77;0.70;;;11.10;99.90;;;;;;4991016;28;20111;-71
2024/01/18 11:59:45;;;;;;;0.82;0.60;;;11.50;99.90;;;;;;4990368;28;20109;-71
2024/01/18 12:02:11;;;;;;;0.45;0.45;;;11.50;99.90;;;;;;4989520;28;20451;-71
2024/01/18 12:04:37;;;;;;;0.73;0.73;;;;;;;;;;4988979;28;20026;-71
2024/01/18 12:07:05;;;;;;;0.40;0.40;;;11.40;99.90;;;;;;4983515;28;20034;-72
2024/01/18 12:09:31;;;;;;;0.60;0.60;;;;;;;;;;4989353;28;20061;-71
2024/01/18 12:11:59;;;;;;;0.50;0.50;;;;;;;;;;4987996;28;20045;-74
2024/01/18 12:14:25;;;;;;;0.60;0.60;;;;;;;;;;4988985;28;20030;-76
2024/01/18 12:16:51;;;;;;;1.23;0.68;;;11.60;99.90;;;;;;4990077;28;20122;-74
2024/01/18 12:19:31;;;;;;;1.83;1.17;;;11.70;99.90;;;;;;4990117;28;20369;-75
2024/01/18 12:21:57;;;;;;;0.82;0.60;;;;;;;;;;4990236;28;20030;-75
2024/01/18 12:24:23;;;;;;;7.10;0.68;;;;;;;;;;4989700;28;20517;-75
2024/01/18 12:26:49;;;;;;;0.22;0.22;;;11.60;99.90;;;;;;4989423;28;20065;-74
2024/01/18 12:29:14;;;;;;;1.20;0.77;;;11.60;99.90;;;;;;4989529;28;20101;-75
2024/01/18 12:31:40;;;;;;;0.43;0.43;;;;;;;;;;4989488;28;20030;-75
2024/01/18 12:34:08;;;;;;;0.40;0.40;;;11.60;99.90;;;;;;4987425;28;20042;-75
2024/01/18 12:36:34;;;;;;;0.98;0.50;;;;;;;;;;4989656;28;20116;-75
2024/01/18 12:39:02;;;;;;;0.35;0.35;;;11.70;99.90;;;;;;4989380;28;20038;-73
2024/01/18 12:41:28;;;;;;;3.42;0.68;;;;;;;;;;4989192;28;20077;-72
2024/01/18 12:43:54;;;;;;;0.40;0.40;;;;;;;;;;4988722;28;20026;-78
2024/01/18 12:46:21;;;;;;;1.10;0.60;;;;;;;;;;4988616;28;20036;-72
2024/01/18 12:48:47;;;;;;;0.40;0.40;;;;;;;;;;4997791;28;20026;-73
2024/01/18 12:51:14;;;;;;;0.52;0.52;;;;;;;;;;4989612;28;20026;-73
2024/01/18 12:53:40;;;;;;;6.13;1.02;;;;;;;;;;4988877;28;20077;-73
2024/01/18 12:56:11;;;;;;;1.75;1.02;;;12.00;99.90;;;;;;4989426;28;20033;-73
2024/01/18 12:58:37;;;;;;;1.92;0.90;;;;;;;;;;4988613;28;20026;-74
2024/01/18 13:01:02;;;;;;;0.68;0.60;;;11.80;99.90;;;;;;4971617;28;20033;-73
2024/01/18 13:03:28;;;;;;;0.50;0.50;;;11.90;99.90;;;;;;4989470;28;20561;-73
2024/01/18 13:05:54;;;;;;;0.52;0.52;;;;;;;;;;4988918;28;20503;-72
2024/01/18 13:08:21;;;;;;;;;;;11.50;99.90;;;;;;4989704;28;20061;-76
2024/01/18 13:10:47;;;;;;;0.50;0.50;;;;;;;;;;4988695;28;19917;-75
2024/01/18 13:13:14;;;;;;;0.75;0.65;;;11.20;99.90;;;;;;4988894;28;20034;-76
2024/01/18 13:15:40;;;;;;;;;;;11.10;99.90;;;;;;4989548;28;20041;-75
2024/01/18 13:18:10;;;;;;;0.98;0.98;;;10.90;99.90;;;;;;4988784;28;19917;-74
2024/01/18 13:20:40;;;;;;;1.35;0.70;;;10.80;99.90;;;;;;4989298;28;20034;-75
2024/01/18 13:23:06;;;;;;;0.60;0.60;;;;;;;;;;4988987;28;20045;-76
2024/01/18 13:25:33;;;;;;;1.25;0.80;;;;;;;;;;4988881;28;20022;-76
2024/01/18 13:27:59;;;;;;;1.40;0.95;;;10.60;99.90;;;;;;4989165;28;20026;-75
2024/01/18 13:30:24;;;;;;;2.90;0.90;;;10.60;99.90;;;;;;4988713;28;20026;-75
2024/01/18 13:32:50;;;;;;;1.50;1.10;;;;;;;;;;4971723;28;20030;-75
2024/01/18 13:35:16;;;;;;;1.13;0.75;;;;;;;;;;4989352;28;20053;-76
2024/01/18 13:37:42;;;;;;;1.48;1.00;;;;;;;;;;4988880;28;20101;-75
2024/01/18 13:40:09;;;;;;;0.80;0.80;;;;;;;;;;4988658;28;20484;-76
2024/01/18 13:42:35;;;;;;;1.30;0.98;;;;;;;;;;4988864;28;20047;-76
2024/01/18 13:45:01;;;;;;;1.50;1.40;;;;;;;;;;4988742;28;20150;-76
2024/01/18 13:47:27;;;;;;;1.70;0.70;;;10.40;99.90;;;;;;5000904;28;20037;-77
2024/01/18 13:49:53;;;;;;;0.70;0.70;;;;;;;;;;4989044;28;20085;-72
2024/01/18 13:52:20;;;;;;;5.50;0.73;;;;;;;;;;4988193;28;20451;-73
2024/01/18 13:54:46;;;;;;;1.02;0.90;;;;;;;;;;4988308;28;20166;-73
2024/01/18 13:57:12;;;;;;;1.08;0.65;;;10.20;99.90;;;;;;4991402;28;20038;-73
2024/01/18 13:59:38;;;;;;;0.93;0.85;;;;;;;;;;4991892;28;20037;-76